sensor_id;sensor_type;location;lat;lon;timestamp;P1;durP1;ratioP1;P2;durP2;ratioP2
44222;SDS011;29895;48.804;9.386;2023-05-10T00:01:05;5.10;;;2.85;;
44222;SDS011;29895;48.804;9.386;2023-05-10T00:03:31;6.13;;;3.00;;
44222;SDS011;29895;48.804;9.386;2023-05-10T00:05:56;4.15;;;2.63;;
44222;SDS011;29895;48.804;9.386;2023-05-10T00:08:22;5.05;;;2.80;;
44222;SDS011;29895;48.804;9.386;2023-05-10T00:10:48;5.05;;;3.22;;
44222;SDS011;29895;48.804;9.386;2023-05-10T00:13:14;4.93;;;3.10;;
44222;SDS011;29895;48.804;9.386;2023-05-10T00:15:40;7.10;;;2.80;;
44222;SDS011;29895;48.804;9.386;2023-05-10T00:18:06;7.60;;;3.20;;
44222;SDS011;29895;48.804;9.386;2023-05-10T00:20:31;6.25;;;2.10;;
44222;SDS011;29895;48.804;9.386;2023-05-10T00:22:57;2.58;;;1.20;;
44222;SDS011;29895;48.804;9.386;2023-05-10T00:25:23;1.75;;;1.05;;
44222;SDS011;29895;48.804;9.386;2023-05-10T00:27:48;12.98;;;1.52;;
44222;SDS011;29895;48.804;9.386;2023-05-10T00:30:14;1.10;;;0.95;;
44222;SDS011;29895;48.804;9.386;2023-05-10T00:32:40;3.55;;;0.80;;
44222;SDS011;29895;48.804;9.386;2023-05-10T00:35:06;1.40;;;0.70;;
44222;SDS011;29895;48.804;9.386;2023-05-10T00:37:32;1.27;;;0.90;;
44222;SDS011;29895;48.804;9.386;2023-05-10T00:39:58;2.15;;;1.10;;
44222;SDS011;29895;48.804;9.386;2023-05-10T00:42:23;2.47;;;0.93;;
44222;SDS011;29895;48.804;9.386;2023-05-10T00:44:49;3.03;;;1.00;;
44222;SDS011;29895;48.804;9.386;2023-05-10T00:47:15;2.97;;;0.70;;
44222;SDS011;29895;48.804;9.386;2023-05-10T00:49:41;0.95;;;0.85;;
44222;SDS011;29895;48.804;9.386;2023-05-10T00:52:08;2.45;;;0.77;;
44222;SDS011;29895;48.804;9.386;2023-05-10T00:54:34;2.70;;;0.73;;
44222;SDS011;29895;48.804;9.386;2023-05-10T00:57:00;1.17;;;0.60;;
44222;SDS011;29895;48.804;9.386;2023-05-10T00:59:26;1.60;;;0.40;;
44222;SDS011;29895;48.804;9.386;2023-05-10T01:01:52;1.38;;;0.32;;
44222;SDS011;29895;48.804;9.386;2023-05-10T01:04:18;0.40;;;0.40;;
44222;SDS011;29895;48.804;9.386;2023-05-10T01:06:46;2.05;;;0.40;;
44222;SDS011;29895;48.804;9.386;2023-05-10T01:09:12;0.40;;;0.30;;
44222;SDS011;29895;48.804;9.386;2023-05-10T01:11:38;0.30;;;0.30;;
44222;SDS011;29895;48.804;9.386;2023-05-10T01:14:05;1.10;;;0.30;;
44222;SDS011;29895;48.804;9.386;2023-05-10T01:16:32;1.25;;;0.30;;
44222;SDS011;29895;48.804;9.386;2023-05-10T01:19:01;3.33;;;0.50;;
44222;SDS011;29895;48.804;9.386;2023-05-10T01:21:33;0.40;;;0.38;;
44222;SDS011;29895;48.804;9.386;2023-05-10T01:29:43;0.45;;;0.40;;
44222;SDS011;29895;48.804;9.386;2023-05-10T01:32:36;0.40;;;0.30;;
44222;SDS011;29895;48.804;9.386;2023-05-10T01:38:06;0.40;;;0.30;;
44222;SDS011;29895;48.804;9.386;2023-05-10T01:41:00;0.60;;;0.38;;
44222;SDS011;29895;48.804;9.386;2023-05-10T01:43:33;4.18;;;0.32;;
44222;SDS011;29895;48.804;9.386;2023-05-10T01:46:08;2.20;;;0.40;;
44222;SDS011;29895;48.804;9.386;2023-05-10T01:48:47;1.92;;;0.43;;
44222;SDS011;29895;48.804;9.386;2023-05-10T01:51:16;1.08;;;0.40;;
44222;SDS011;29895;48.804;9.386;2023-05-10T01:53:47;1.02;;;0.43;;
44222;SDS011;29895;48.804;9.386;2023-05-10T01:56:14;3.20;;;0.30;;
44222;SDS011;29895;48.804;9.386;2023-05-10T01:58:43;1.67;;;0.38;;
44222;SDS011;29895;48.804;9.386;2023-05-10T02:01:11;0.77;;;0.50;;
44222;SDS011;29895;48.804;9.386;2023-05-10T02:03:37;0.40;;;0.40;;
44222;SDS011;29895;48.804;9.386;2023-05-10T02:06:04;1.70;;;0.60;;
44222;SDS011;29895;48.804;9.386;2023-05-10T02:08:32;0.70;;;0.50;;
44222;SDS011;29895;48.804;9.386;2023-05-10T02:11:00;0.65;;;0.60;;
44222;SDS011;29895;48.804;9.386;2023-05-10T02:13:27;0.80;;;0.57;;
44222;SDS011;29895;48.804;9.386;2023-05-10T02:15:54;0.85;;;0.50;;
44222;SDS011;29895;48.804;9.386;2023-05-10T02:18:24;0.55;;;0.43;;
44222;SDS011;29895;48.804;9.386;2023-05-10T02:20:52;3.08;;;0.52;;
44222;SDS011;29895;48.804;9.386;2023-05-10T02:23:20;0.52;;;0.50;;
44222;SDS011;29895;48.804;9.386;2023-05-10T02:25:46;1.90;;;0.50;;
44222;SDS011;29895;48.804;9.386;2023-05-10T02:28:14;0.60;;;0.60;;
44222;SDS011;29895;48.804;9.386;2023-05-10T02:30:40;2.50;;;0.60;;
44222;SDS011;29895;48.804;9.386;2023-05-10T02:33:06;0.68;;;0.57;;
44222;SDS011;29895;48.804;9.386;2023-05-10T02:35:32;1.38;;;0.60;;
44222;SDS011;29895;48.804;9.386;2023-05-10T02:38:00;1.25;;;0.65;;
44222;SDS011;29895;48.804;9.386;2023-05-10T02:40:26;1.92;;;0.70;;
44222;SDS011;29895;48.804;9.386;2023-05-10T02:42:54;1.35;;;0.68;;
44222;SDS011;29895;48.804;9.386;2023-05-10T02:45:21;3.72;;;0.63;;
44222;SDS011;29895;48.804;9.386;2023-05-10T02:47:51;0.85;;;0.70;;
44222;SDS011;29895;48.804;9.386;2023-05-10T02:50:17;2.30;;;0.52;;
44222;SDS011;29895;48.804;9.386;2023-05-10T02:52:44;2.03;;;0.60;;
44222;SDS011;29895;48.804;9.386;2023-05-10T02:55:14;1.63;;;0.60;;
44222;SDS011;29895;48.804;9.386;2023-05-10T02:57:43;1.88;;;0.60;;
44222;SDS011;29895;48.804;9.386;2023-05-10T03:00:15;0.75;;;0.52;;
44222;SDS011;29895;48.804;9.386;2023-05-10T03:02:41;1.75;;;0.60;;
44222;SDS011;29895;48.804;9.386;2023-05-10T03:05:07;0.85;;;0.70;;
44222;SDS011;29895;48.804;9.386;2023-05-10T03:07:35;2.75;;;0.90;;
44222;SDS011;29895;48.804;9.386;2023-05-10T03:10:01;1.33;;;0.70;;
44222;SDS011;29895;48.804;9.386;2023-05-10T03:20:15;1.63;;;0.73;;
44222;SDS011;29895;48.804;9.386;2023-05-10T03:22:47;3.13;;;0.90;;
44222;SDS011;29895;48.804;9.386;2023-05-10T03:25:18;1.00;;;0.80;;
44222;SDS011;29895;48.804;9.386;2023-05-10T03:27:46;1.30;;;0.80;;
44222;SDS011;29895;48.804;9.386;2023-05-10T03:30:12;1.45;;;0.80;;
44222;SDS011;29895;48.804;9.386;2023-05-10T03:32:39;2.20;;;1.00;;
44222;SDS011;29895;48.804;9.386;2023-05-10T03:35:11;2.78;;;1.00;;
44222;SDS011;29895;48.804;9.386;2023-05-10T03:37:38;1.92;;;0.75;;
44222;SDS011;29895;48.804;9.386;2023-05-10T03:40:04;1.60;;;1.30;;
44222;SDS011;29895;48.804;9.386;2023-05-10T03:42:32;0.80;;;0.80;;
44222;SDS011;29895;48.804;9.386;2023-05-10T03:44:57;1.92;;;1.00;;
44222;SDS011;29895;48.804;9.386;2023-05-10T03:47:23;2.00;;;1.05;;
44222;SDS011;29895;48.804;9.386;2023-05-10T03:49:48;1.55;;;0.73;;
44222;SDS011;29895;48.804;9.386;2023-05-10T03:52:14;1.42;;;0.90;;
44222;SDS011;29895;48.804;9.386;2023-05-10T03:54:40;6.22;;;0.95;;
44222;SDS011;29895;48.804;9.386;2023-05-10T03:57:06;1.60;;;0.90;;
44222;SDS011;29895;48.804;9.386;2023-05-10T03:59:31;1.45;;;0.80;;
44222;SDS011;29895;48.804;9.386;2023-05-10T04:01:57;1.70;;;0.82;;
44222;SDS011;29895;48.804;9.386;2023-05-10T04:04:23;1.80;;;1.10;;
44222;SDS011;29895;48.804;9.386;2023-05-10T04:06:48;3.35;;;0.90;;
44222;SDS011;29895;48.804;9.386;2023-05-10T04:09:14;3.85;;;1.30;;
44222;SDS011;29895;48.804;9.386;2023-05-10T04:11:41;3.10;;;1.30;;
44222;SDS011;29895;48.804;9.386;2023-05-10T04:14:07;3.47;;;1.23;;
44222;SDS011;29895;48.804;9.386;2023-05-10T04:16:33;3.40;;;1.50;;
44222;SDS011;29895;48.804;9.386;2023-05-10T04:18:58;2.33;;;1.13;;
44222;SDS011;29895;48.804;9.386;2023-05-10T04:21:25;2.22;;;1.20;;
44222;SDS011;29895;48.804;9.386;2023-05-10T04:23:50;9.68;;;3.67;;
44222;SDS011;29895;48.804;9.386;2023-05-10T04:26:16;6.50;;;3.33;;
44222;SDS011;29895;48.804;9.386;2023-05-10T04:28:41;4.45;;;1.50;;
44222;SDS011;29895;48.804;9.386;2023-05-10T04:31:08;2.97;;;1.13;;
44222;SDS011;29895;48.804;9.386;2023-05-10T04:33:34;1.70;;;0.95;;
44222;SDS011;29895;48.804;9.386;2023-05-10T04:36:01;2.35;;;1.10;;
44222;SDS011;29895;48.804;9.386;2023-05-10T04:38:28;1.45;;;0.90;;
44222;SDS011;29895;48.804;9.386;2023-05-10T04:40:54;3.35;;;1.10;;
44222;SDS011;29895;48.804;9.386;2023-05-10T04:43:28;1.75;;;0.90;;
44222;SDS011;29895;48.804;9.386;2023-05-10T04:45:55;4.57;;;1.30;;
44222;SDS011;29895;48.804;9.386;2023-05-10T04:48:21;2.85;;;1.40;;
44222;SDS011;29895;48.804;9.386;2023-05-10T04:50:47;3.97;;;1.10;;
44222;SDS011;29895;48.804;9.386;2023-05-10T04:53:13;3.55;;;1.20;;
44222;SDS011;29895;48.804;9.386;2023-05-10T04:55:38;1.58;;;1.13;;
44222;SDS011;29895;48.804;9.386;2023-05-10T04:58:04;2.88;;;1.40;;
44222;SDS011;29895;48.804;9.386;2023-05-10T05:00:29;5.20;;;1.50;;
44222;SDS011;29895;48.804;9.386;2023-05-10T05:02:55;3.35;;;1.40;;
44222;SDS011;29895;48.804;9.386;2023-05-10T05:05:21;3.28;;;1.42;;
44222;SDS011;29895;48.804;9.386;2023-05-10T05:07:46;3.63;;;1.33;;
44222;SDS011;29895;48.804;9.386;2023-05-10T05:10:12;4.55;;;1.45;;
44222;SDS011;29895;48.804;9.386;2023-05-10T05:12:37;4.45;;;1.30;;
44222;SDS011;29895;48.804;9.386;2023-05-10T05:15:03;3.65;;;1.27;;
44222;SDS011;29895;48.804;9.386;2023-05-10T05:17:30;2.38;;;1.50;;
44222;SDS011;29895;48.804;9.386;2023-05-10T05:19:56;5.63;;;1.60;;
44222;SDS011;29895;48.804;9.386;2023-05-10T05:22:22;3.58;;;1.20;;
44222;SDS011;29895;48.804;9.386;2023-05-10T05:24:55;8.48;;;1.48;;
44222;SDS011;29895;48.804;9.386;2023-05-10T05:27:21;3.03;;;1.40;;
44222;SDS011;29895;48.804;9.386;2023-05-10T05:29:52;2.72;;;1.30;;
44222;SDS011;29895;48.804;9.386;2023-05-10T05:32:18;3.45;;;1.25;;
44222;SDS011;29895;48.804;9.386;2023-05-10T05:34:44;3.00;;;1.35;;
44222;SDS011;29895;48.804;9.386;2023-05-10T05:37:17;7.45;;;3.53;;
44222;SDS011;29895;48.804;9.386;2023-05-10T05:39:44;5.40;;;2.78;;
44222;SDS011;29895;48.804;9.386;2023-05-10T05:42:10;2.38;;;1.40;;
44222;SDS011;29895;48.804;9.386;2023-05-10T05:44:37;1.95;;;1.00;;
44222;SDS011;29895;48.804;9.386;2023-05-10T05:47:04;2.28;;;0.98;;
44222;SDS011;29895;48.804;9.386;2023-05-10T05:49:30;2.92;;;1.02;;
44222;SDS011;29895;48.804;9.386;2023-05-10T05:51:59;3.72;;;1.20;;
44222;SDS011;29895;48.804;9.386;2023-05-10T05:54:25;4.93;;;1.25;;
44222;SDS011;29895;48.804;9.386;2023-05-10T05:56:53;3.80;;;1.10;;
44222;SDS011;29895;48.804;9.386;2023-05-10T05:59:20;3.60;;;1.25;;
44222;SDS011;29895;48.804;9.386;2023-05-10T06:01:46;2.75;;;0.90;;
44222;SDS011;29895;48.804;9.386;2023-05-10T06:04:12;3.53;;;0.98;;
44222;SDS011;29895;48.804;9.386;2023-05-10T06:06:38;3.90;;;1.13;;
44222;SDS011;29895;48.804;9.386;2023-05-10T06:09:03;2.40;;;1.10;;
44222;SDS011;29895;48.804;9.386;2023-05-10T06:11:35;4.20;;;1.10;;
44222;SDS011;29895;48.804;9.386;2023-05-10T06:14:01;1.92;;;1.42;;
44222;SDS011;29895;48.804;9.386;2023-05-10T06:16:29;6.55;;;1.25;;
44222;SDS011;29895;48.804;9.386;2023-05-10T06:18:55;2.72;;;1.35;;
44222;SDS011;29895;48.804;9.386;2023-05-10T06:21:21;2.70;;;1.42;;
44222;SDS011;29895;48.804;9.386;2023-05-10T06:23:46;2.85;;;1.20;;
44222;SDS011;29895;48.804;9.386;2023-05-10T06:26:12;5.25;;;1.00;;
44222;SDS011;29895;48.804;9.386;2023-05-10T06:28:39;2.30;;;0.82;;
44222;SDS011;29895;48.804;9.386;2023-05-10T06:31:05;5.38;;;0.90;;
44222;SDS011;29895;48.804;9.386;2023-05-10T06:33:31;3.08;;;1.10;;
44222;SDS011;29895;48.804;9.386;2023-05-10T06:35:57;5.97;;;2.17;;
44222;SDS011;29895;48.804;9.386;2023-05-10T06:38:23;11.40;;;1.70;;
44222;SDS011;29895;48.804;9.386;2023-05-10T06:40:49;2.80;;;1.42;;
44222;SDS011;29895;48.804;9.386;2023-05-10T06:43:14;4.00;;;1.13;;
44222;SDS011;29895;48.804;9.386;2023-05-10T06:45:41;3.67;;;2.40;;
44222;SDS011;29895;48.804;9.386;2023-05-10T06:48:07;2.30;;;1.67;;
44222;SDS011;29895;48.804;9.386;2023-05-10T06:50:32;2.92;;;1.20;;
44222;SDS011;29895;48.804;9.386;2023-05-10T06:52:59;2.70;;;0.85;;
44222;SDS011;29895;48.804;9.386;2023-05-10T06:55:25;5.13;;;1.05;;
44222;SDS011;29895;48.804;9.386;2023-05-10T06:57:51;1.42;;;1.00;;
44222;SDS011;29895;48.804;9.386;2023-05-10T07:00:17;1.80;;;1.30;;
44222;SDS011;29895;48.804;9.386;2023-05-10T07:02:43;2.47;;;1.42;;
44222;SDS011;29895;48.804;9.386;2023-05-10T07:05:09;3.53;;;1.38;;
44222;SDS011;29895;48.804;9.386;2023-05-10T07:07:35;3.33;;;1.30;;
44222;SDS011;29895;48.804;9.386;2023-05-10T07:10:01;6.00;;;1.63;;
44222;SDS011;29895;48.804;9.386;2023-05-10T07:12:27;5.93;;;2.80;;
44222;SDS011;29895;48.804;9.386;2023-05-10T07:14:53;5.05;;;2.10;;
44222;SDS011;29895;48.804;9.386;2023-05-10T07:17:19;1.92;;;1.42;;
44222;SDS011;29895;48.804;9.386;2023-05-10T07:19:44;4.65;;;1.20;;
44222;SDS011;29895;48.804;9.386;2023-05-10T07:22:10;2.35;;;1.38;;
44222;SDS011;29895;48.804;9.386;2023-05-10T07:24:36;2.75;;;1.00;;
44222;SDS011;29895;48.804;9.386;2023-05-10T07:27:02;1.73;;;1.00;;
44222;SDS011;29895;48.804;9.386;2023-05-10T07:29:27;3.20;;;1.40;;
44222;SDS011;29895;48.804;9.386;2023-05-10T07:31:53;3.08;;;1.13;;
44222;SDS011;29895;48.804;9.386;2023-05-10T07:34:19;4.85;;;0.95;;
44222;SDS011;29895;48.804;9.386;2023-05-10T07:36:45;1.92;;;0.82;;
44222;SDS011;29895;48.804;9.386;2023-05-10T07:39:10;6.20;;;1.08;;
44222;SDS011;29895;48.804;9.386;2023-05-10T07:41:36;4.13;;;1.23;;
44222;SDS011;29895;48.804;9.386;2023-05-10T07:44:02;4.95;;;0.90;;
44222;SDS011;29895;48.804;9.386;2023-05-10T07:46:28;4.43;;;1.40;;
44222;SDS011;29895;48.804;9.386;2023-05-10T07:48:54;1.30;;;1.00;;
44222;SDS011;29895;48.804;9.386;2023-05-10T07:51:20;11.65;;;2.53;;
44222;SDS011;29895;48.804;9.386;2023-05-10T07:53:46;2.65;;;0.88;;
44222;SDS011;29895;48.804;9.386;2023-05-10T07:56:25;4.20;;;0.90;;
44222;SDS011;29895;48.804;9.386;2023-05-10T07:58:54;4.43;;;1.05;;
44222;SDS011;29895;48.804;9.386;2023-05-10T08:01:23;3.05;;;1.45;;
44222;SDS011;29895;48.804;9.386;2023-05-10T08:03:49;3.33;;;3.00;;
44222;SDS011;29895;48.804;9.386;2023-05-10T08:06:17;8.63;;;3.05;;
44222;SDS011;29895;48.804;9.386;2023-05-10T08:08:43;7.10;;;2.80;;
44222;SDS011;29895;48.804;9.386;2023-05-10T08:11:14;4.43;;;2.60;;
44222;SDS011;29895;48.804;9.386;2023-05-10T08:13:43;5.25;;;2.50;;
44222;SDS011;29895;48.804;9.386;2023-05-10T08:16:09;9.65;;;5.32;;
44222;SDS011;29895;48.804;9.386;2023-05-10T08:18:36;8.70;;;6.93;;
44222;SDS011;29895;48.804;9.386;2023-05-10T08:21:02;6.70;;;2.95;;
44222;SDS011;29895;48.804;9.386;2023-05-10T08:23:28;9.30;;;3.95;;
44222;SDS011;29895;48.804;9.386;2023-05-10T08:25:53;7.35;;;5.50;;
44222;SDS011;29895;48.804;9.386;2023-05-10T08:28:19;7.53;;;5.55;;
44222;SDS011;29895;48.804;9.386;2023-05-10T08:30:45;6.55;;;4.13;;
44222;SDS011;29895;48.804;9.386;2023-05-10T08:33:13;12.80;;;8.65;;
44222;SDS011;29895;48.804;9.386;2023-05-10T08:35:39;4.10;;;2.72;;
44222;SDS011;29895;48.804;9.386;2023-05-10T08:38:04;9.02;;;6.00;;
44222;SDS011;29895;48.804;9.386;2023-05-10T08:40:30;3.33;;;1.52;;
44222;SDS011;29895;48.804;9.386;2023-05-10T08:43:06;6.05;;;3.60;;
44222;SDS011;29895;48.804;9.386;2023-05-10T08:45:36;4.00;;;2.63;;
44222;SDS011;29895;48.804;9.386;2023-05-10T08:48:06;8.75;;;4.70;;
44222;SDS011;29895;48.804;9.386;2023-05-10T08:50:37;2.88;;;1.25;;
44222;SDS011;29895;48.804;9.386;2023-05-10T08:53:04;5.07;;;1.38;;
44222;SDS011;29895;48.804;9.386;2023-05-10T08:55:32;2.42;;;1.00;;
44222;SDS011;29895;48.804;9.386;2023-05-10T08:57:59;6.28;;;1.38;;
44222;SDS011;29895;48.804;9.386;2023-05-10T09:00:25;2.85;;;1.27;;
44222;SDS011;29895;48.804;9.386;2023-05-10T09:02:51;3.60;;;0.75;;
44222;SDS011;29895;48.804;9.386;2023-05-10T09:05:18;3.10;;;0.63;;
44222;SDS011;29895;48.804;9.386;2023-05-10T09:07:44;2.97;;;1.08;;
44222;SDS011;29895;48.804;9.386;2023-05-10T09:10:10;3.00;;;0.90;;
44222;SDS011;29895;48.804;9.386;2023-05-10T09:12:36;1.75;;;0.80;;
44222;SDS011;29895;48.804;9.386;2023-05-10T09:15:03;9.13;;;0.98;;
44222;SDS011;29895;48.804;9.386;2023-05-10T09:17:30;0.90;;;0.52;;
44222;SDS011;29895;48.804;9.386;2023-05-10T09:19:57;1.75;;;0.73;;
44222;SDS011;29895;48.804;9.386;2023-05-10T09:22:26;2.65;;;1.20;;
44222;SDS011;29895;48.804;9.386;2023-05-10T09:27:34;1.42;;;0.90;;
44222;SDS011;29895;48.804;9.386;2023-05-10T09:30:01;1.50;;;0.70;;
44222;SDS011;29895;48.804;9.386;2023-05-10T09:32:48;4.68;;;1.80;;
44222;SDS011;29895;48.804;9.386;2023-05-10T09:35:14;2.08;;;0.90;;
44222;SDS011;29895;48.804;9.386;2023-05-10T09:37:43;6.07;;;1.25;;
44222;SDS011;29895;48.804;9.386;2023-05-10T09:40:11;0.98;;;0.70;;
44222;SDS011;29895;48.804;9.386;2023-05-10T09:42:38;2.50;;;0.60;;
44222;SDS011;29895;48.804;9.386;2023-05-10T09:45:05;2.83;;;0.75;;
44222;SDS011;29895;48.804;9.386;2023-05-10T09:47:33;2.38;;;0.85;;
44222;SDS011;29895;48.804;9.386;2023-05-10T09:49:59;23.77;;;2.50;;
44222;SDS011;29895;48.804;9.386;2023-05-10T09:55:14;4.10;;;1.00;;
44222;SDS011;29895;48.804;9.386;2023-05-10T09:57:40;5.00;;;0.52;;
44222;SDS011;29895;48.804;9.386;2023-05-10T10:00:06;20.67;;;2.88;;
44222;SDS011;29895;48.804;9.386;2023-05-10T10:02:33;4.63;;;0.90;;
44222;SDS011;29895;48.804;9.386;2023-05-10T10:05:00;4.30;;;0.60;;
44222;SDS011;29895;48.804;9.386;2023-05-10T10:07:27;2.85;;;0.60;;
44222;SDS011;29895;48.804;9.386;2023-05-10T10:09:54;2.63;;;0.60;;
44222;SDS011;29895;48.804;9.386;2023-05-10T10:12:20;0.88;;;0.50;;
44222;SDS011;29895;48.804;9.386;2023-05-10T10:14:46;2.28;;;0.50;;
44222;SDS011;29895;48.804;9.386;2023-05-10T10:17:13;1.50;;;0.75;;
44222;SDS011;29895;48.804;9.386;2023-05-10T10:19:39;1.52;;;0.63;;
44222;SDS011;29895;48.804;9.386;2023-05-10T10:22:06;3.05;;;1.15;;
44222;SDS011;29895;48.804;9.386;2023-05-10T10:24:32;2.33;;;0.93;;
44222;SDS011;29895;48.804;9.386;2023-05-10T10:27:10;7.18;;;0.90;;
44222;SDS011;29895;48.804;9.386;2023-05-10T10:29:44;5.90;;;1.10;;
44222;SDS011;29895;48.804;9.386;2023-05-10T10:32:33;1.08;;;0.50;;
44222;SDS011;29895;48.804;9.386;2023-05-10T10:35:08;2.08;;;0.70;;
44222;SDS011;29895;48.804;9.386;2023-05-10T10:37:45;1.73;;;0.65;;
44222;SDS011;29895;48.804;9.386;2023-05-10T10:42:54;2.47;;;0.63;;
44222;SDS011;29895;48.804;9.386;2023-05-10T10:45:21;1.52;;;0.63;;
44222;SDS011;29895;48.804;9.386;2023-05-10T10:47:48;2.88;;;0.60;;
44222;SDS011;29895;48.804;9.386;2023-05-10T10:50:18;2.33;;;0.60;;
44222;SDS011;29895;48.804;9.386;2023-05-10T10:52:44;3.60;;;0.40;;
44222;SDS011;29895;48.804;9.386;2023-05-10T10:55:14;2.65;;;1.00;;
44222;SDS011;29895;48.804;9.386;2023-05-10T10:57:46;5.50;;;1.20;;
44222;SDS011;29895;48.804;9.386;2023-05-10T11:00:22;2.20;;;0.60;;
44222;SDS011;29895;48.804;9.386;2023-05-10T11:05:42;1.58;;;0.60;;
44222;SDS011;29895;48.804;9.386;2023-05-10T11:08:17;2.20;;;0.60;;
44222;SDS011;29895;48.804;9.386;2023-05-10T11:16:27;0.43;;;0.38;;
44222;SDS011;29895;48.804;9.386;2023-05-10T11:21:19;1.35;;;0.40;;
44222;SDS011;29895;48.804;9.386;2023-05-10T11:23:52;1.58;;;0.60;;
44222;SDS011;29895;48.804;9.386;2023-05-10T11:26:25;4.25;;;1.25;;
44222;SDS011;29895;48.804;9.386;2023-05-10T11:28:56;2.03;;;0.47;;
44222;SDS011;29895;48.804;9.386;2023-05-10T11:31:23;7.35;;;0.88;;
44222;SDS011;29895;48.804;9.386;2023-05-10T11:33:52;2.05;;;0.47;;
44222;SDS011;29895;48.804;9.386;2023-05-10T11:36:24;1.63;;;0.57;;
44222;SDS011;29895;48.804;9.386;2023-05-10T11:38:51;14.50;;;1.63;;
44222;SDS011;29895;48.804;9.386;2023-05-10T11:41:17;5.88;;;0.68;;
44222;SDS011;29895;48.804;9.386;2023-05-10T11:43:46;5.30;;;0.35;;
44222;SDS011;29895;48.804;9.386;2023-05-10T11:46:25;1.63;;;0.38;;
44222;SDS011;29895;48.804;9.386;2023-05-10T11:48:57;16.45;;;2.80;;
44222;SDS011;29895;48.804;9.386;2023-05-10T11:51:29;3.58;;;0.70;;
44222;SDS011;29895;48.804;9.386;2023-05-10T11:53:58;2.67;;;0.70;;
44222;SDS011;29895;48.804;9.386;2023-05-10T11:56:23;2.25;;;0.70;;
44222;SDS011;29895;48.804;9.386;2023-05-10T11:58:55;4.93;;;1.00;;
44222;SDS011;29895;48.804;9.386;2023-05-10T12:01:22;3.95;;;0.85;;
44222;SDS011;29895;48.804;9.386;2023-05-10T12:03:49;2.13;;;0.40;;
44222;SDS011;29895;48.804;9.386;2023-05-10T12:06:17;2.72;;;0.47;;
44222;SDS011;29895;48.804;9.386;2023-05-10T12:08:44;3.50;;;0.60;;
44222;SDS011;29895;48.804;9.386;2023-05-10T12:11:11;3.22;;;0.60;;
44222;SDS011;29895;48.804;9.386;2023-05-10T12:13:42;1.95;;;0.60;;
44222;SDS011;29895;48.804;9.386;2023-05-10T12:16:21;2.67;;;0.68;;
44222;SDS011;29895;48.804;9.386;2023-05-10T12:18:49;1.77;;;0.57;;
44222;SDS011;29895;48.804;9.386;2023-05-10T12:21:16;1.70;;;0.70;;
44222;SDS011;29895;48.804;9.386;2023-05-10T12:23:43;2.33;;;0.93;;
44222;SDS011;29895;48.804;9.386;2023-05-10T12:26:11;2.22;;;1.10;;
44222;SDS011;29895;48.804;9.386;2023-05-10T12:28:37;3.40;;;0.73;;
44222;SDS011;29895;48.804;9.386;2023-05-10T12:31:04;4.20;;;0.80;;
44222;SDS011;29895;48.804;9.386;2023-05-10T12:33:37;9.75;;;1.15;;
44222;SDS011;29895;48.804;9.386;2023-05-10T12:36:04;3.70;;;1.13;;
44222;SDS011;29895;48.804;9.386;2023-05-10T12:40:57;2.00;;;0.90;;
44222;SDS011;29895;48.804;9.386;2023-05-10T12:43:24;4.63;;;1.10;;
44222;SDS011;29895;48.804;9.386;2023-05-10T12:45:50;3.70;;;0.70;;
44222;SDS011;29895;48.804;9.386;2023-05-10T12:48:18;3.58;;;0.90;;
44222;SDS011;29895;48.804;9.386;2023-05-10T12:50:45;2.88;;;0.70;;
44222;SDS011;29895;48.804;9.386;2023-05-10T12:53:11;3.63;;;0.70;;
44222;SDS011;29895;48.804;9.386;2023-05-10T12:55:38;9.00;;;1.00;;
44222;SDS011;29895;48.804;9.386;2023-05-10T12:58:04;5.75;;;1.00;;
44222;SDS011;29895;48.804;9.386;2023-05-10T13:00:30;1.35;;;0.60;;
44222;SDS011;29895;48.804;9.386;2023-05-10T13:02:56;2.92;;;0.90;;
44222;SDS011;29895;48.804;9.386;2023-05-10T13:05:21;3.72;;;0.82;;
44222;SDS011;29895;48.804;9.386;2023-05-10T13:07:47;2.40;;;0.68;;
44222;SDS011;29895;48.804;9.386;2023-05-10T13:10:13;4.32;;;0.80;;
44222;SDS011;29895;48.804;9.386;2023-05-10T13:12:39;6.13;;;1.25;;
44222;SDS011;29895;48.804;9.386;2023-05-10T13:15:04;2.92;;;0.90;;
44222;SDS011;29895;48.804;9.386;2023-05-10T13:17:31;4.55;;;1.30;;
44222;SDS011;29895;48.804;9.386;2023-05-10T13:19:57;2.80;;;0.90;;
44222;SDS011;29895;48.804;9.386;2023-05-10T13:22:22;2.30;;;0.63;;
44222;SDS011;29895;48.804;9.386;2023-05-10T13:24:48;2.85;;;1.05;;
44222;SDS011;29895;48.804;9.386;2023-05-10T13:27:14;6.13;;;1.33;;
44222;SDS011;29895;48.804;9.386;2023-05-10T13:29:40;1.77;;;0.90;;
44222;SDS011;29895;48.804;9.386;2023-05-10T13:32:05;5.07;;;0.80;;
44222;SDS011;29895;48.804;9.386;2023-05-10T13:34:31;3.25;;;0.93;;
44222;SDS011;29895;48.804;9.386;2023-05-10T13:36:57;2.17;;;0.90;;
44222;SDS011;29895;48.804;9.386;2023-05-10T13:39:23;5.47;;;0.60;;
44222;SDS011;29895;48.804;9.386;2023-05-10T13:41:48;6.60;;;1.38;;
44222;SDS011;29895;48.804;9.386;2023-05-10T13:44:14;5.10;;;1.10;;
44222;SDS011;29895;48.804;9.386;2023-05-10T13:46:41;3.70;;;0.80;;
44222;SDS011;29895;48.804;9.386;2023-05-10T13:49:10;2.22;;;1.10;;
44222;SDS011;29895;48.804;9.386;2023-05-10T13:51:36;1.90;;;1.10;;
44222;SDS011;29895;48.804;9.386;2023-05-10T13:54:02;2.67;;;1.10;;
44222;SDS011;29895;48.804;9.386;2023-05-10T13:56:28;5.03;;;1.25;;
44222;SDS011;29895;48.804;9.386;2023-05-10T13:58:53;0.95;;;0.50;;
44222;SDS011;29895;48.804;9.386;2023-05-10T14:01:21;3.67;;;0.80;;
44222;SDS011;29895;48.804;9.386;2023-05-10T14:03:48;3.92;;;0.93;;
44222;SDS011;29895;48.804;9.386;2023-05-10T14:06:13;3.53;;;0.98;;
44222;SDS011;29895;48.804;9.386;2023-05-10T14:08:39;4.00;;;0.98;;
44222;SDS011;29895;48.804;9.386;2023-05-10T14:11:05;3.38;;;1.02;;
44222;SDS011;29895;48.804;9.386;2023-05-10T14:13:31;2.85;;;0.88;;
44222;SDS011;29895;48.804;9.386;2023-05-10T14:15:56;3.20;;;1.00;;
44222;SDS011;29895;48.804;9.386;2023-05-10T14:18:23;4.50;;;1.00;;
44222;SDS011;29895;48.804;9.386;2023-05-10T14:20:49;3.55;;;1.60;;
44222;SDS011;29895;48.804;9.386;2023-05-10T14:23:15;2.75;;;0.80;;
44222;SDS011;29895;48.804;9.386;2023-05-10T14:25:40;3.42;;;0.90;;
44222;SDS011;29895;48.804;9.386;2023-05-10T14:28:06;4.57;;;1.10;;
44222;SDS011;29895;48.804;9.386;2023-05-10T14:30:32;2.30;;;0.85;;
44222;SDS011;29895;48.804;9.386;2023-05-10T14:32:59;3.55;;;0.90;;
44222;SDS011;29895;48.804;9.386;2023-05-10T14:35:27;3.40;;;0.88;;
44222;SDS011;29895;48.804;9.386;2023-05-10T14:37:55;5.30;;;0.77;;
44222;SDS011;29895;48.804;9.386;2023-05-10T14:40:21;4.65;;;0.90;;
44222;SDS011;29895;48.804;9.386;2023-05-10T14:42:47;2.78;;;0.93;;
44222;SDS011;29895;48.804;9.386;2023-05-10T14:45:15;3.10;;;0.90;;
44222;SDS011;29895;48.804;9.386;2023-05-10T14:47:40;6.47;;;1.40;;
44222;SDS011;29895;48.804;9.386;2023-05-10T14:50:06;2.95;;;0.77;;
44222;SDS011;29895;48.804;9.386;2023-05-10T14:52:32;2.55;;;0.80;;
44222;SDS011;29895;48.804;9.386;2023-05-10T14:54:58;2.90;;;0.68;;
44222;SDS011;29895;48.804;9.386;2023-05-10T14:57:25;1.33;;;0.80;;
44222;SDS011;29895;48.804;9.386;2023-05-10T14:59:51;2.22;;;0.88;;
44222;SDS011;29895;48.804;9.386;2023-05-10T15:02:16;2.85;;;0.80;;
44222;SDS011;29895;48.804;9.386;2023-05-10T15:04:42;6.00;;;1.10;;
44222;SDS011;29895;48.804;9.386;2023-05-10T15:07:07;2.10;;;0.70;;
44222;SDS011;29895;48.804;9.386;2023-05-10T15:09:33;3.70;;;0.80;;
44222;SDS011;29895;48.804;9.386;2023-05-10T15:11:59;4.15;;;0.95;;
44222;SDS011;29895;48.804;9.386;2023-05-10T15:14:25;1.88;;;0.60;;
44222;SDS011;29895;48.804;9.386;2023-05-10T15:16:51;3.35;;;0.80;;
44222;SDS011;29895;48.804;9.386;2023-05-10T15:19:16;1.75;;;0.73;;
44222;SDS011;29895;48.804;9.386;2023-05-10T15:21:42;2.67;;;1.13;;
44222;SDS011;29895;48.804;9.386;2023-05-10T15:24:09;1.98;;;0.55;;
44222;SDS011;29895;48.804;9.386;2023-05-10T15:26:35;2.53;;;0.70;;